sensor_id;sensor_type;location;lat;lon;timestamp;temperature;humidity
18575;DHT22;9417;16.484;102.872;2023-07-09T00:27:09;29.00;91.60
18575;DHT22;9417;16.484;102.872;2023-07-09T00:29:17;29.60;88.90
18575;DHT22;9417;16.484;102.872;2023-07-09T00:31:24;29.50;89.30
18575;DHT22;9417;16.484;102.872;2023-07-09T00:33:32;29.40;89.50
18575;DHT22;9417;16.484;102.872;2023-07-09T00:35:40;29.40;89.60
18575;DHT22;9417;16.484;102.872;2023-07-09T00:37:47;29.40;89.50
18575;DHT22;9417;16.484;102.872;2023-07-09T00:39:54;29.40;89.40
18575;DHT22;9417;16.484;102.872;2023-07-09T00:42:01;29.40;89.20
18575;DHT22;9417;16.484;102.872;2023-07-09T00:44:25;29.40;89.20
18575;DHT22;9417;16.484;102.872;2023-07-09T00:49:28;29.50;89.30
18575;DHT22;9417;16.484;102.872;2023-07-09T00:51:38;29.40;89.20
18575;DHT22;9417;16.484;102.872;2023-07-09T00:53:50;29.40;88.90
18575;DHT22;9417;16.484;102.872;2023-07-09T00:56:06;29.40;88.90
18575;DHT22;9417;16.484;102.872;2023-07-09T00:58:15;29.50;88.70
18575;DHT22;9417;16.484;102.872;2023-07-09T01:00:27;29.50;88.40
18575;DHT22;9417;16.484;102.872;2023-07-09T01:02:35;29.50;88.20
18575;DHT22;9417;16.484;102.872;2023-07-09T01:04:46;29.50;88.20
18575;DHT22;9417;16.484;102.872;2023-07-09T01:06:54;29.50;88.00
18575;DHT22;9417;16.484;102.872;2023-07-09T01:09:02;29.50;88.00
18575;DHT22;9417;16.484;102.872;2023-07-09T01:11:16;29.50;87.80
18575;DHT22;9417;16.484;102.872;2023-07-09T01:13:27;29.50;87.70
18575;DHT22;9417;16.484;102.872;2023-07-09T01:15:37;29.50;87.60
18575;DHT22;9417;16.484;102.872;2023-07-09T01:17:47;29.60;87.50
18575;DHT22;9417;16.484;102.872;2023-07-09T01:19:58;29.60;87.50
18575;DHT22;9417;16.484;102.872;2023-07-09T01:22:07;29.60;87.50
18575;DHT22;9417;16.484;102.872;2023-07-09T01:26:42;29.70;87.40
18575;DHT22;9417;16.484;102.872;2023-07-09T01:28:50;29.70;87.20
18575;DHT22;9417;16.484;102.872;2023-07-09T01:30:59;29.70;86.70
18575;DHT22;9417;16.484;102.872;2023-07-09T01:33:13;29.80;86.20
18575;DHT22;9417;16.484;102.872;2023-07-09T01:35:21;29.80;85.90
18575;DHT22;9417;16.484;102.872;2023-07-09T01:37:32;29.90;85.70
18575;DHT22;9417;16.484;102.872;2023-07-09T01:39:39;29.90;85.30
18575;DHT22;9417;16.484;102.872;2023-07-09T01:41:48;29.90;84.70
18575;DHT22;9417;16.484;102.872;2023-07-09T01:43:55;30.00;84.50
18575;DHT22;9417;16.484;102.872;2023-07-09T01:46:03;30.00;84.40
18575;DHT22;9417;16.484;102.872;2023-07-09T01:48:12;30.10;84.30
18575;DHT22;9417;16.484;102.872;2023-07-09T01:50:20;30.10;84.10
18575;DHT22;9417;16.484;102.872;2023-07-09T01:52:27;30.10;84.00
18575;DHT22;9417;16.484;102.872;2023-07-09T01:54:39;30.20;83.90
18575;DHT22;9417;16.484;102.872;2023-07-09T01:56:47;30.20;83.80
18575;DHT22;9417;16.484;102.872;2023-07-09T01:58:54;30.20;83.20
18575;DHT22;9417;16.484;102.872;2023-07-09T02:01:05;30.30;83.10
18575;DHT22;9417;16.484;102.872;2023-07-09T02:03:12;30.30;83.10
18575;DHT22;9417;16.484;102.872;2023-07-09T02:05:22;30.30;83.00
18575;DHT22;9417;16.484;102.872;2023-07-09T02:07:29;30.40;82.80
18575;DHT22;9417;16.484;102.872;2023-07-09T02:09:38;30.40;82.70
18575;DHT22;9417;16.484;102.872;2023-07-09T02:11:46;30.50;82.60
18575;DHT22;9417;16.484;102.872;2023-07-09T02:13:53;30.60;82.80
18575;DHT22;9417;16.484;102.872;2023-07-09T02:16:00;30.60;82.80
18575;DHT22;9417;16.484;102.872;2023-07-09T02:18:08;30.70;82.80
18575;DHT22;9417;16.484;102.872;2023-07-09T02:20:15;30.70;82.70
18575;DHT22;9417;16.484;102.872;2023-07-09T02:22:23;30.80;82.30
18575;DHT22;9417;16.484;102.872;2023-07-09T02:24:31;30.80;82.10
18575;DHT22;9417;16.484;102.872;2023-07-09T02:26:40;30.80;81.70
18575;DHT22;9417;16.484;102.872;2023-07-09T02:28:47;30.70;81.50
18575;DHT22;9417;16.484;102.872;2023-07-09T02:30:54;30.70;81.50
18575;DHT22;9417;16.484;102.872;2023-07-09T02:33:01;30.70;81.60
18575;DHT22;9417;16.484;102.872;2023-07-09T02:35:09;30.70;81.60
18575;DHT22;9417;16.484;102.872;2023-07-09T02:37:17;30.70;81.50
18575;DHT22;9417;16.484;102.872;2023-07-09T02:39:23;30.60;81.30
18575;DHT22;9417;16.484;102.872;2023-07-09T02:41:31;30.60;81.30
18575;DHT22;9417;16.484;102.872;2023-07-09T02:43:40;30.60;81.40
18575;DHT22;9417;16.484;102.872;2023-07-09T02:45:47;30.60;81.30
18575;DHT22;9417;16.484;102.872;2023-07-09T02:47:54;30.60;81.20
18575;DHT22;9417;16.484;102.872;2023-07-09T02:50:02;30.70;81.20
18575;DHT22;9417;16.484;102.872;2023-07-09T02:52:09;30.70;81.10
18575;DHT22;9417;16.484;102.872;2023-07-09T02:54:16;30.70;81.10
18575;DHT22;9417;16.484;102.872;2023-07-09T02:56:24;30.70;81.20
18575;DHT22;9417;16.484;102.872;2023-07-09T02:58:31;30.80;81.20
18575;DHT22;9417;16.484;102.872;2023-07-09T03:00:39;30.80;81.10
18575;DHT22;9417;16.484;102.872;2023-07-09T03:02:46;30.90;80.90
18575;DHT22;9417;16.484;102.872;2023-07-09T03:04:54;31.00;80.70
18575;DHT22;9417;16.484;102.872;2023-07-09T03:07:01;31.20;80.10
18575;DHT22;9417;16.484;102.872;2023-07-09T03:09:08;31.30;79.60
18575;DHT22;9417;16.484;102.872;2023-07-09T03:11:15;31.30;79.20
18575;DHT22;9417;16.484;102.872;2023-07-09T03:13:23;31.40;79.10
18575;DHT22;9417;16.484;102.872;2023-07-09T03:15:30;31.50;79.00
18575;DHT22;9417;16.484;102.872;2023-07-09T03:17:39;31.60;78.60
18575;DHT22;9417;16.484;102.872;2023-07-09T03:19:46;31.70;78.40
18575;DHT22;9417;16.484;102.872;2023-07-09T03:21:54;31.70;78.20
18575;DHT22;9417;16.484;102.872;2023-07-09T03:24:00;31.80;78.10
18575;DHT22;9417;16.484;102.872;2023-07-09T03:26:08;31.90;77.60
18575;DHT22;9417;16.484;102.872;2023-07-09T03:28:15;32.00;77.30
18575;DHT22;9417;16.484;102.872;2023-07-09T03:30:23;32.10;76.80
18575;DHT22;9417;16.484;102.872;2023-07-09T03:32:31;32.20;76.60
18575;DHT22;9417;16.484;102.872;2023-07-09T03:34:40;32.20;76.30
18575;DHT22;9417;16.484;102.872;2023-07-09T03:36:47;32.20;76.00
18575;DHT22;9417;16.484;102.872;2023-07-09T03:38:54;32.10;75.60
18575;DHT22;9417;16.484;102.872;2023-07-09T03:41:00;32.20;75.80
18575;DHT22;9417;16.484;102.872;2023-07-09T03:43:08;32.20;75.70
18575;DHT22;9417;16.484;102.872;2023-07-09T03:45:14;32.20;75.40
18575;DHT22;9417;16.484;102.872;2023-07-09T03:47:22;32.20;75.50
18575;DHT22;9417;16.484;102.872;2023-07-09T03:49:29;32.20;75.30
18575;DHT22;9417;16.484;102.872;2023-07-09T03:51:38;32.30;74.40
18575;DHT22;9417;16.484;102.872;2023-07-09T03:53:46;32.40;74.10
18575;DHT22;9417;16.484;102.872;2023-07-09T03:55:54;32.50;73.80
18575;DHT22;9417;16.484;102.872;2023-07-09T03:58:01;32.60;73.70
18575;DHT22;9417;16.484;102.872;2023-07-09T04:00:09;32.60;73.50
18575;DHT22;9417;16.484;102.872;2023-07-09T04:02:19;32.70;72.50
18575;DHT22;9417;16.484;102.872;2023-07-09T04:04:26;32.70;72.20
18575;DHT22;9417;16.484;102.872;2023-07-09T04:06:34;32.70;72.40
18575;DHT22;9417;16.484;102.872;2023-07-09T04:08:45;32.70;72.90
18575;DHT22;9417;16.484;102.872;2023-07-09T04:10:53;32.80;72.80
18575;DHT22;9417;16.484;102.872;2023-07-09T04:13:01;32.80;72.50
18575;DHT22;9417;16.484;102.872;2023-07-09T04:15:09;32.80;72.50
18575;DHT22;9417;16.484;102.872;2023-07-09T04:17:17;32.80;72.30
18575;DHT22;9417;16.484;102.872;2023-07-09T04:19:24;32.80;72.00
18575;DHT22;9417;16.484;102.872;2023-07-09T04:21:32;32.80;72.50
18575;DHT22;9417;16.484;102.872;2023-07-09T04:23:39;32.80;72.50
18575;DHT22;9417;16.484;102.872;2023-07-09T04:25:49;32.80;72.80
18575;DHT22;9417;16.484;102.872;2023-07-09T04:27:56;32.90;72.50
18575;DHT22;9417;16.484;102.872;2023-07-09T04:30:04;33.00;72.60
18575;DHT22;9417;16.484;102.872;2023-07-09T04:32:13;33.00;72.30
18575;DHT22;9417;16.484;102.872;2023-07-09T04:34:20;33.00;72.20
18575;DHT22;9417;16.484;102.872;2023-07-09T04:36:27;33.00;71.90
18575;DHT22;9417;16.484;102.872;2023-07-09T04:38:35;33.10;72.10
18575;DHT22;9417;16.484;102.872;2023-07-09T04:40:42;33.10;71.90
18575;DHT22;9417;16.484;102.872;2023-07-09T04:42:51;33.10;71.10
18575;DHT22;9417;16.484;102.872;2023-07-09T04:44:58;33.20;71.00
18575;DHT22;9417;16.484;102.872;2023-07-09T04:47:05;33.20;70.70
18575;DHT22;9417;16.484;102.872;2023-07-09T04:49:12;33.30;70.30
18575;DHT22;9417;16.484;102.872;2023-07-09T04:51:19;33.20;70.30
18575;DHT22;9417;16.484;102.872;2023-07-09T04:53:27;33.30;70.90
18575;DHT22;9417;16.484;102.872;2023-07-09T04:55:33;33.30;70.90
18575;DHT22;9417;16.484;102.872;2023-07-09T04:57:41;33.40;71.10
18575;DHT22;9417;16.484;102.872;2023-07-09T04:59:49;33.40;70.60
18575;DHT22;9417;16.484;102.872;2023-07-09T05:01:56;33.30;70.20
18575;DHT22;9417;16.484;102.872;2023-07-09T05:04:04;33.20;69.90
18575;DHT22;9417;16.484;102.872;2023-07-09T05:06:14;33.10;70.00
18575;DHT22;9417;16.484;102.872;2023-07-09T05:08:21;33.10;70.20
18575;DHT22;9417;16.484;102.872;2023-07-09T05:10:28;33.00;70.30
18575;DHT22;9417;16.484;102.872;2023-07-09T05:12:35;33.00;70.20
18575;DHT22;9417;16.484;102.872;2023-07-09T05:14:43;33.00;70.30
18575;DHT22;9417;16.484;102.872;2023-07-09T05:16:53;32.90;69.80
18575;DHT22;9417;16.484;102.872;2023-07-09T05:19:01;32.90;69.90
18575;DHT22;9417;16.484;102.872;2023-07-09T05:21:08;32.80;70.40
18575;DHT22;9417;16.484;102.872;2023-07-09T05:23:15;32.90;70.40
18575;DHT22;9417;16.484;102.872;2023-07-09T05:25:24;32.90;70.60
18575;DHT22;9417;16.484;102.872;2023-07-09T05:27:32;32.80;70.70
18575;DHT22;9417;16.484;102.872;2023-07-09T05:29:40;32.80;70.50
18575;DHT22;9417;16.484;102.872;2023-07-09T05:31:47;32.80;70.30
18575;DHT22;9417;16.484;102.872;2023-07-09T05:33:56;32.80;70.30
18575;DHT22;9417;16.484;102.872;2023-07-09T05:36:05;32.80;69.90
18575;DHT22;9417;16.484;102.872;2023-07-09T05:38:13;32.90;70.10
18575;DHT22;9417;16.484;102.872;2023-07-09T05:40:21;32.80;70.50
18575;DHT22;9417;16.484;102.872;2023-07-09T05:42:30;32.90;70.60
18575;DHT22;9417;16.484;102.872;2023-07-09T05:44:37;32.80;70.90
18575;DHT22;9417;16.484;102.872;2023-07-09T05:46:45;32.80;71.00
18575;DHT22;9417;16.484;102.872;2023-07-09T05:48:55;32.80;71.00
18575;DHT22;9417;16.484;102.872;2023-07-09T05:51:02;32.70;71.20
18575;DHT22;9417;16.484;102.872;2023-07-09T05:53:10;32.80;71.10
18575;DHT22;9417;16.484;102.872;2023-07-09T05:55:17;32.80;71.20
18575;DHT22;9417;16.484;102.872;2023-07-09T05:57:27;32.80;70.90
18575;DHT22;9417;16.484;102.872;2023-07-09T05:59:35;32.80;70.30
18575;DHT22;9417;16.484;102.872;2023-07-09T06:01:42;32.80;70.10
18575;DHT22;9417;16.484;102.872;2023-07-09T06:03:50;32.90;70.40
18575;DHT22;9417;16.484;102.872;2023-07-09T06:05:58;32.90;70.30
18575;DHT22;9417;16.484;102.872;2023-07-09T06:08:06;33.00;69.80
18575;DHT22;9417;16.484;102.872;2023-07-09T06:10:13;33.00;69.50
18575;DHT22;9417;16.484;102.872;2023-07-09T06:12:21;33.10;69.40
18575;DHT22;9417;16.484;102.872;2023-07-09T06:14:28;33.10;69.00
18575;DHT22;9417;16.484;102.872;2023-07-09T06:16:35;33.10;68.80
18575;DHT22;9417;16.484;102.872;2023-07-09T06:18:45;33.10;68.90
18575;DHT22;9417;16.484;102.872;2023-07-09T06:20:57;33.10;68.70
18575;DHT22;9417;16.484;102.872;2023-07-09T06:23:04;33.10;68.90
18575;DHT22;9417;16.484;102.872;2023-07-09T06:25:12;33.00;68.90
18575;DHT22;9417;16.484;102.872;2023-07-09T06:27:20;33.00;69.20
18575;DHT22;9417;16.484;102.872;2023-07-09T06:29:27;32.90;69.00
18575;DHT22;9417;16.484;102.872;2023-07-09T06:31:35;32.80;68.90
18575;DHT22;9417;16.484;102.872;2023-07-09T06:33:42;32.80;69.20
18575;DHT22;9417;16.484;102.872;2023-07-09T06:35:51;32.80;69.30
18575;DHT22;9417;16.484;102.872;2023-07-09T06:38:02;32.80;69.40
18575;DHT22;9417;16.484;102.872;2023-07-09T06:40:09;32.70;69.80
18575;DHT22;9417;16.484;102.872;2023-07-09T06:42:17;32.70;69.60
18575;DHT22;9417;16.484;102.872;2023-07-09T06:44:36;32.70;69.40
18575;DHT22;9417;16.484;102.872;2023-07-09T06:46:47;32.70;69.70
18575;DHT22;9417;16.484;102.872;2023-07-09T06:48:54;32.70;70.00
18575;DHT22;9417;16.484;102.872;2023-07-09T06:51:01;32.80;70.10
18575;DHT22;9417;16.484;102.872;2023-07-09T06:53:10;32.80;70.00
18575;DHT22;9417;16.484;102.872;2023-07-09T06:55:21;32.80;69.60
18575;DHT22;9417;16.484;102.872;2023-07-09T06:57:28;32.80;69.40
18575;DHT22;9417;16.484;102.872;2023-07-09T06:59:35;32.80;68.90
18575;DHT22;9417;16.484;102.872;2023-07-09T07:01:42;32.80;69.00
18575;DHT22;9417;16.484;102.872;2023-07-09T07:03:50;32.80;69.20
18575;DHT22;9417;16.484;102.872;2023-07-09T07:05:57;32.80;69.30
18575;DHT22;9417;16.484;102.872;2023-07-09T07:08:05;32.80;69.40
18575;DHT22;9417;16.484;102.872;2023-07-09T07:10:14;32.90;69.30
18575;DHT22;9417;16.484;102.872;2023-07-09T07:12:24;32.80;69.40
18575;DHT22;9417;16.484;102.872;2023-07-09T07:14:31;32.90;69.90
18575;DHT22;9417;16.484;102.872;2023-07-09T07:16:38;32.80;70.20
18575;DHT22;9417;16.484;102.872;2023-07-09T07:18:47;32.80;70.60
18575;DHT22;9417;16.484;102.872;2023-07-09T07:20:55;32.80;69.90
18575;DHT22;9417;16.484;102.872;2023-07-09T07:23:02;32.70;69.60
18575;DHT22;9417;16.484;102.872;2023-07-09T07:25:12;32.80;69.50
18575;DHT22;9417;16.484;102.872;2023-07-09T07:27:20;32.90;69.40
18575;DHT22;9417;16.484;102.872;2023-07-09T07:29:27;32.90;69.30
18575;DHT22;9417;16.484;102.872;2023-07-09T07:31:34;32.90;69.80
18575;DHT22;9417;16.484;102.872;2023-07-09T07:33:42;33.00;69.60
18575;DHT22;9417;16.484;102.872;2023-07-09T07:35:50;33.00;69.20
18575;DHT22;9417;16.484;102.872;2023-07-09T07:38:18;33.00;68.60
18575;DHT22;9417;16.484;102.872;2023-07-09T07:40:29;33.00;68.50
18575;DHT22;9417;16.484;102.872;2023-07-09T07:42:40;33.00;68.90
18575;DHT22;9417;16.484;102.872;2023-07-09T07:44:47;33.00;68.80
18575;DHT22;9417;16.484;102.872;2023-07-09T07:46:55;33.00;68.40
18575;DHT22;9417;16.484;102.872;2023-07-09T07:49:11;33.00;68.20
18575;DHT22;9417;16.484;102.872;2023-07-09T07:51:18;33.10;68.50
18575;DHT22;9417;16.484;102.872;2023-07-09T07:53:26;33.10;68.50
18575;DHT22;9417;16.484;102.872;2023-07-09T07:55:36;33.20;67.70
18575;DHT22;9417;16.484;102.872;2023-07-09T07:57:44;33.20;67.40
18575;DHT22;9417;16.484;102.872;2023-07-09T07:59:51;33.20;67.40
18575;DHT22;9417;16.484;102.872;2023-07-09T08:01:58;33.20;66.80
18575;DHT22;9417;16.484;102.872;2023-07-09T08:04:05;33.20;66.70
18575;DHT22;9417;16.484;102.872;2023-07-09T08:06:13;33.20;66.50
18575;DHT22;9417;16.484;102.872;2023-07-09T08:08:20;33.20;66.50
18575;DHT22;9417;16.484;102.872;2023-07-09T08:10:27;33.30;66.10
18575;DHT22;9417;16.484;102.872;2023-07-09T08:12:36;33.30;66.70
18575;DHT22;9417;16.484;102.872;2023-07-09T08:14:45;33.40;66.80
18575;DHT22;9417;16.484;102.872;2023-07-09T08:16:52;33.30;66.60
18575;DHT22;9417;16.484;102.872;2023-07-09T08:18:59;33.20;67.60
18575;DHT22;9417;16.484;102.872;2023-07-09T08:21:06;33.20;67.80
18575;DHT22;9417;16.484;102.872;2023-07-09T08:23:15;33.10;67.30
18575;DHT22;9417;16.484;102.872;2023-07-09T08:25:22;33.10;67.00
18575;DHT22;9417;16.484;102.872;2023-07-09T08:27:29;33.00;66.90
18575;DHT22;9417;16.484;102.872;2023-07-09T08:29:39;33.00;67.00
18575;DHT22;9417;16.484;102.872;2023-07-09T08:31:47;33.00;67.20
18575;DHT22;9417;16.484;102.872;2023-07-09T08:33:55;32.90;67.10
18575;DHT22;9417;16.484;102.872;2023-07-09T08:36:02;32.90;67.50
18575;DHT22;9417;16.484;102.872;2023-07-09T08:38:10;32.80;67.30
18575;DHT22;9417;16.484;102.872;2023-07-09T08:40:17;32.70;67.10
18575;DHT22;9417;16.484;102.872;2023-07-09T08:42:30;32.70;67.30
18575;DHT22;9417;16.484;102.872;2023-07-09T08:45:11;32.80;67.70
18575;DHT22;9417;16.484;102.872;2023-07-09T08:47:27;32.80;67.50
18575;DHT22;9417;16.484;102.872;2023-07-09T08:49:43;32.80;67.40
18575;DHT22;9417;16.484;102.872;2023-07-09T08:51:53;32.80;67.30
18575;DHT22;9417;16.484;102.872;2023-07-09T08:54:13;32.90;67.00
18575;DHT22;9417;16.484;102.872;2023-07-09T08:56:22;32.90;66.30
18575;DHT22;9417;16.484;102.872;2023-07-09T08:58:33;32.90;67.10
18575;DHT22;9417;16.484;102.872;2023-07-09T09:00:53;33.00;66.70
18575;DHT22;9417;16.484;102.872;2023-07-09T09:03:04;33.10;66.30
18575;DHT22;9417;16.484;102.872;2023-07-09T09:05:18;33.10;66.10
18575;DHT22;9417;16.484;102.872;2023-07-09T09:07:35;33.10;66.10
18575;DHT22;9417;16.484;102.872;2023-07-09T09:09:49;33.10;65.80
18575;DHT22;9417;16.484;102.872;2023-07-09T09:12:04;33.00;65.10
18575;DHT22;9417;16.484;102.872;2023-07-09T09:14:26;32.90;64.80
18575;DHT22;9417;16.484;102.872;2023-07-09T09:16:39;32.80;65.20
18575;DHT22;9417;16.484;102.872;2023-07-09T09:18:59;32.70;66.40
18575;DHT22;9417;16.484;102.872;2023-07-09T09:21:15;32.60;67.80
18575;DHT22;9417;16.484;102.872;2023-07-09T09:23:31;32.50;68.40
18575;DHT22;9417;16.484;102.872;2023-07-09T09:25:48;32.50;69.10
18575;DHT22;9417;16.484;102.872;2023-07-09T09:28:16;32.40;69.80
18575;DHT22;9417;16.484;102.872;2023-07-09T09:30:25;32.30;70.30
18575;DHT22;9417;16.484;102.872;2023-07-09T09:32:39;32.30;69.40
18575;DHT22;9417;16.484;102.872;2023-07-09T09:34:48;32.20;68.10
18575;DHT22;9417;16.484;102.872;2023-07-09T09:36:56;32.20;69.10
18575;DHT22;9417;16.484;102.872;2023-07-09T09:39:05;32.20;69.80
18575;DHT22;9417;16.484;102.872;2023-07-09T09:41:17;32.20;69.00
18575;DHT22;9417;16.484;102.872;2023-07-09T09:43:31;32.30;68.20
18575;DHT22;9417;16.484;102.872;2023-07-09T09:45:44;32.20;68.00
18575;DHT22;9417;16.484;102.872;2023-07-09T09:48:05;32.20;68.20
18575;DHT22;9417;16.484;102.872;2023-07-09T09:50:17;32.20;68.00
18575;DHT22;9417;16.484;102.872;2023-07-09T09:52:32;32.40;68.50
18575;DHT22;9417;16.484;102.872;2023-07-09T09:54:41;32.30;67.60
18575;DHT22;9417;16.484;102.872;2023-07-09T09:56:50;32.30;68.00
18575;DHT22;9417;16.484;102.872;2023-07-09T09:58:58;32.20;68.00
18575;DHT22;9417;16.484;102.872;2023-07-09T10:01:05;32.20;67.70
18575;DHT22;9417;16.484;102.872;2023-07-09T10:03:14;32.20;68.20
18575;DHT22;9417;16.484;102.872;2023-07-09T10:05:25;32.20;68.80
18575;DHT22;9417;16.484;102.872;2023-07-09T10:07:39;32.20;68.90
18575;DHT22;9417;16.484;102.872;2023-07-09T10:09:49;32.20;68.30
18575;DHT22;9417;16.484;102.872;2023-07-09T10:12:01;32.20;68.50
18575;DHT22;9417;16.484;102.872;2023-07-09T10:14:25;32.20;68.70
18575;DHT22;9417;16.484;102.872;2023-07-09T10:16:38;32.20;68.50
18575;DHT22;9417;16.484;102.872;2023-07-09T10:18:55;32.10;68.70
18575;DHT22;9417;16.484;102.872;2023-07-09T10:21:09;32.10;68.30
18575;DHT22;9417;16.484;102.872;2023-07-09T10:23:23;32.10;68.30
18575;DHT22;9417;16.484;102.872;2023-07-09T10:25:39;32.10;69.10
18575;DHT22;9417;16.484;102.872;2023-07-09T10:27:59;32.00;69.60
18575;DHT22;9417;16.484;102.872;2023-07-09T10:30:19;31.90;70.10
18575;DHT22;9417;16.484;102.872;2023-07-09T10:32:40;31.90;70.40
18575;DHT22;9417;16.484;102.872;2023-07-09T10:34:59;31.90;69.90
18575;DHT22;9417;16.484;102.872;2023-07-09T10:37:23;31.80;69.80
18575;DHT22;9417;16.484;102.872;2023-07-09T10:39:36;31.80;69.50
18575;DHT22;9417;16.484;102.872;2023-07-09T10:41:44;31.80;70.30
18575;DHT22;9417;16.484;102.872;2023-07-09T10:43:59;31.80;70.60
18575;DHT22;9417;16.484;102.872;2023-07-09T10:46:13;31.70;71.20
18575;DHT22;9417;16.484;102.872;2023-07-09T10:48:34;31.70;71.50
18575;DHT22;9417;16.484;102.872;2023-07-09T10:50:49;31.70;71.60
18575;DHT22;9417;16.484;102.872;2023-07-09T10:53:02;31.60;71.50
18575;DHT22;9417;16.484;102.872;2023-07-09T10:55:16;31.60;71.50
18575;DHT22;9417;16.484;102.872;2023-07-09T10:57:29;31.60;71.90
18575;DHT22;9417;16.484;102.872;2023-07-09T10:59:41;31.60;72.20
18575;DHT22;9417;16.484;102.872;2023-07-09T11:01:50;31.60;72.50
18575;DHT22;9417;16.484;102.872;2023-07-09T11:04:04;31.50;72.70
18575;DHT22;9417;16.484;102.872;2023-07-09T11:06:23;31.50;72.40
18575;DHT22;9417;16.484;102.872;2023-07-09T11:08:37;31.50;72.40
18575;DHT22;9417;16.484;102.872;2023-07-09T11:10:50;31.50;72.80
18575;DHT22;9417;16.484;102.872;2023-07-09T11:13:01;31.40;73.40
18575;DHT22;9417;16.484;102.872;2023-07-09T11:15:12;31.40;73.40
18575;DHT22;9417;16.484;102.872;2023-07-09T11:17:22;31.40;73.00
18575;DHT22;9417;16.484;102.872;2023-07-09T11:19:31;31.30;72.90
18575;DHT22;9417;16.484;102.872;2023-07-09T11:21:55;31.30;73.10
18575;DHT22;9417;16.484;102.872;2023-07-09T11:26:30;31.20;75.60
18575;DHT22;9417;16.484;102.872;2023-07-09T11:28:39;31.20;76.50
18575;DHT22;9417;16.484;102.872;2023-07-09T11:30:55;31.10;77.10
18575;DHT22;9417;16.484;102.872;2023-07-09T11:33:19;31.10;77.10
18575;DHT22;9417;16.484;102.872;2023-07-09T11:35:29;31.10;77.90
18575;DHT22;9417;16.484;102.872;2023-07-09T11:37:47;31.00;77.70
18575;DHT22;9417;16.484;102.872;2023-07-09T11:39:54;31.00;76.80
18575;DHT22;9417;16.484;102.872;2023-07-09T11:42:28;30.80;76.30
18575;DHT22;9417;16.484;102.872;2023-07-09T11:44:35;30.80;75.90
18575;DHT22;9417;16.484;102.872;2023-07-09T11:47:07;30.80;76.40
18575;DHT22;9417;16.484;102.872;2023-07-09T11:49:25;30.80;76.90
18575;DHT22;9417;16.484;102.872;2023-07-09T11:51:40;30.80;77.00
18575;DHT22;9417;16.484;102.872;2023-07-09T11:53:52;30.70;76.90
18575;DHT22;9417;16.484;102.872;2023-07-09T11:55:59;30.70;77.10
18575;DHT22;9417;16.484;102.872;2023-07-09T11:58:09;30.70;77.50
18575;DHT22;9417;16.484;102.872;2023-07-09T12:00:17;30.70;78.30
18575;DHT22;9417;16.484;102.872;2023-07-09T12:02:31;30.60;78.60
18575;DHT22;9417;16.484;102.872;2023-07-09T12:04:39;30.60;78.50
18575;DHT22;9417;16.484;102.872;2023-07-09T12:06:59;30.60;77.90
18575;DHT22;9417;16.484;102.872;2023-07-09T12:09:10;30.60;78.40
18575;DHT22;9417;16.484;102.872;2023-07-09T12:11:23;30.50;78.40
18575;DHT22;9417;16.484;102.872;2023-07-09T12:13:37;30.40;77.90
18575;DHT22;9417;16.484;102.872;2023-07-09T12:15:49;30.30;77.40
18575;DHT22;9417;16.484;102.872;2023-07-09T12:17:59;30.40;77.40
18575;DHT22;9417;16.484;102.872;2023-07-09T12:20:09;30.40;77.50
18575;DHT22;9417;16.484;102.872;2023-07-09T12:22:21;30.40;77.70
18575;DHT22;9417;16.484;102.872;2023-07-09T12:24:38;30.30;77.80
18575;DHT22;9417;16.484;102.872;2023-07-09T12:26:52;30.40;77.50
18575;DHT22;9417;16.484;102.872;2023-07-09T12:29:00;30.30;77.10
18575;DHT22;9417;16.484;102.872;2023-07-09T12:31:13;30.20;76.40
18575;DHT22;9417;16.484;102.872;2023-07-09T12:33:22;30.20;76.70
18575;DHT22;9417;16.484;102.872;2023-07-09T12:35:30;30.30;77.50
18575;DHT22;9417;16.484;102.872;2023-07-09T12:37:37;30.30;78.40
18575;DHT22;9417;16.484;102.872;2023-07-09T12:39:49;30.20;78.60
18575;DHT22;9417;16.484;102.872;2023-07-09T12:42:03;30.20;77.80
18575;DHT22;9417;16.484;102.872;2023-07-09T12:44:21;30.10;77.20
18575;DHT22;9417;16.484;102.872;2023-07-09T12:46:31;30.10;76.10
18575;DHT22;9417;16.484;102.872;2023-07-09T12:48:38;30.10;75.80
18575;DHT22;9417;16.484;102.872;2023-07-09T12:50:50;30.00;75.70
18575;DHT22;9417;16.484;102.872;2023-07-09T12:53:02;30.00;76.10
18575;DHT22;9417;16.484;102.872;2023-07-09T12:55:22;29.90;76.90
18575;DHT22;9417;16.484;102.872;2023-07-09T12:57:30;29.90;77.80
18575;DHT22;9417;16.484;102.872;2023-07-09T12:59:46;29.90;79.10
18575;DHT22;9417;16.484;102.872;2023-07-09T13:02:00;29.90;80.10
18575;DHT22;9417;16.484;102.872;2023-07-09T13:04:12;29.90;81.30
18575;DHT22;9417;16.484;102.872;2023-07-09T13:06:28;29.80;81.60
18575;DHT22;9417;16.484;102.872;2023-07-09T13:08:42;29.80;81.70
18575;DHT22;9417;16.484;102.872;2023-07-09T13:10:59;29.70;82.10
18575;DHT22;9417;16.484;102.872;2023-07-09T13:13:13;29.60;81.70
18575;DHT22;9417;16.484;102.872;2023-07-09T13:15:26;29.60;81.60
18575;DHT22;9417;16.484;102.872;2023-07-09T13:17:41;29.50;81.50
18575;DHT22;9417;16.484;102.872;2023-07-09T13:19:49;29.50;80.30
18575;DHT22;9417;16.484;102.872;2023-07-09T13:21:59;29.50;80.10
18575;DHT22;9417;16.484;102.872;2023-07-09T13:24:13;29.50;80.20
18575;DHT22;9417;16.484;102.872;2023-07-09T13:26:23;29.50;80.90
18575;DHT22;9417;16.484;102.872;2023-07-09T13:28:31;29.50;81.20
18575;DHT22;9417;16.484;102.872;2023-07-09T13:30:39;29.50;81.70
18575;DHT22;9417;16.484;102.872;2023-07-09T13:32:46;29.50;82.00
18575;DHT22;9417;16.484;102.872;2023-07-09T13:34:55;29.50;82.80
18575;DHT22;9417;16.484;102.872;2023-07-09T13:37:02;29.50;83.30
18575;DHT22;9417;16.484;102.872;2023-07-09T13:39:10;29.50;83.60
18575;DHT22;9417;16.484;102.872;2023-07-09T13:41:22;29.50;83.40
18575;DHT22;9417;16.484;102.872;2023-07-09T13:43:32;29.60;83.50
18575;DHT22;9417;16.484;102.872;2023-07-09T13:45:40;29.50;83.90
18575;DHT22;9417;16.484;102.872;2023-07-09T13:47:50;29.50;84.30
18575;DHT22;9417;16.484;102.872;2023-07-09T13:49:57;29.50;84.60
18575;DHT22;9417;16.484;102.872;2023-07-09T13:52:16;29.50;84.70
18575;DHT22;9417;16.484;102.872;2023-07-09T13:54:32;29.50;84.80
18575;DHT22;9417;16.484;102.872;2023-07-09T13:56:44;29.50;85.20
18575;DHT22;9417;16.484;102.872;2023-07-09T13:58:52;29.50;85.30
18575;DHT22;9417;16.484;102.872;2023-07-09T14:01:14;29.50;85.10
18575;DHT22;9417;16.484;102.872;2023-07-09T14:03:31;29.50;84.40